sensor_id;sensor_type;location;lat;lon;timestamp;P1;durP1;ratioP1;P2;durP2;ratioP2
68234;SDS011;55052;52.056;5.296;2023-03-20T00:04:30;19.80;;;9.88;;
68234;SDS011;55052;52.056;5.296;2023-03-20T00:06:57;23.10;;;10.65;;
68234;SDS011;55052;52.056;5.296;2023-03-20T00:09:24;23.02;;;10.93;;
68234;SDS011;55052;52.056;5.296;2023-03-20T00:11:52;22.42;;;12.10;;
68234;SDS011;55052;52.056;5.296;2023-03-20T00:14:21;22.85;;;11.57;;
68234;SDS011;55052;52.056;5.296;2023-03-20T00:16:50;23.58;;;11.60;;
68234;SDS011;55052;52.056;5.296;2023-03-20T00:19:21;19.42;;;11.23;;
68234;SDS011;55052;52.056;5.296;2023-03-20T00:21:53;21.92;;;11.23;;
68234;SDS011;55052;52.056;5.296;2023-03-20T00:24:20;19.48;;;10.57;;
68234;SDS011;55052;52.056;5.296;2023-03-20T00:26:49;21.20;;;10.35;;
68234;SDS011;55052;52.056;5.296;2023-03-20T00:31:48;21.50;;;10.10;;
68234;SDS011;55052;52.056;5.296;2023-03-20T00:34:15;16.30;;;9.07;;
68234;SDS011;55052;52.056;5.296;2023-03-20T00:36:44;17.35;;;8.57;;
68234;SDS011;55052;52.056;5.296;2023-03-20T00:39:11;17.38;;;8.98;;
68234;SDS011;55052;52.056;5.296;2023-03-20T00:46:46;17.33;;;7.72;;
68234;SDS011;55052;52.056;5.296;2023-03-20T00:49:23;16.92;;;7.65;;
68234;SDS011;55052;52.056;5.296;2023-03-20T00:51:53;13.35;;;6.68;;
68234;SDS011;55052;52.056;5.296;2023-03-20T00:54:20;14.35;;;6.70;;
68234;SDS011;55052;52.056;5.296;2023-03-20T00:59:35;16.75;;;6.93;;
68234;SDS011;55052;52.056;5.296;2023-03-20T01:02:05;11.38;;;5.65;;
68234;SDS011;55052;52.056;5.296;2023-03-20T01:04:39;12.38;;;6.15;;
68234;SDS011;55052;52.056;5.296;2023-03-20T01:07:09;11.98;;;6.35;;
68234;SDS011;55052;52.056;5.296;2023-03-20T01:09:38;13.25;;;6.60;;
68234;SDS011;55052;52.056;5.296;2023-03-20T01:12:05;12.50;;;5.40;;
68234;SDS011;55052;52.056;5.296;2023-03-20T01:14:33;12.65;;;5.60;;
68234;SDS011;55052;52.056;5.296;2023-03-20T01:17:00;8.73;;;5.18;;
68234;SDS011;55052;52.056;5.296;2023-03-20T01:19:27;9.57;;;5.38;;
68234;SDS011;55052;52.056;5.296;2023-03-20T01:21:54;12.05;;;5.72;;
68234;SDS011;55052;52.056;5.296;2023-03-20T01:24:21;11.90;;;4.93;;
68234;SDS011;55052;52.056;5.296;2023-03-20T01:26:48;10.45;;;5.35;;
68234;SDS011;55052;52.056;5.296;2023-03-20T01:29:21;9.85;;;4.78;;
68234;SDS011;55052;52.056;5.296;2023-03-20T01:31:49;9.93;;;4.88;;
68234;SDS011;55052;52.056;5.296;2023-03-20T01:34:17;11.00;;;5.10;;
68234;SDS011;55052;52.056;5.296;2023-03-20T01:36:45;13.50;;;5.13;;
68234;SDS011;55052;52.056;5.296;2023-03-20T01:39:15;8.70;;;4.55;;
68234;SDS011;55052;52.056;5.296;2023-03-20T01:41:43;9.10;;;4.85;;
68234;SDS011;55052;52.056;5.296;2023-03-20T01:44:44;11.10;;;5.28;;
68234;SDS011;55052;52.056;5.296;2023-03-20T01:47:05;11.70;;;5.32;;
68234;SDS011;55052;52.056;5.296;2023-03-20T01:52:56;12.35;;;6.15;;
68234;SDS011;55052;52.056;5.296;2023-03-20T01:55:30;11.20;;;5.82;;
68234;SDS011;55052;52.056;5.296;2023-03-20T01:57:59;15.35;;;5.68;;
68234;SDS011;55052;52.056;5.296;2023-03-20T02:00:31;11.05;;;6.43;;
68234;SDS011;55052;52.056;5.296;2023-03-20T02:02:58;14.50;;;7.00;;
68234;SDS011;55052;52.056;5.296;2023-03-20T02:05:25;15.32;;;7.00;;
68234;SDS011;55052;52.056;5.296;2023-03-20T02:07:58;13.00;;;6.63;;
68234;SDS011;55052;52.056;5.296;2023-03-20T02:10:35;14.02;;;7.15;;
68234;SDS011;55052;52.056;5.296;2023-03-20T02:13:02;15.68;;;7.72;;
68234;SDS011;55052;52.056;5.296;2023-03-20T02:15:30;15.90;;;7.07;;
68234;SDS011;55052;52.056;5.296;2023-03-20T02:17:58;16.30;;;7.00;;
68234;SDS011;55052;52.056;5.296;2023-03-20T02:20:30;16.85;;;7.50;;
68234;SDS011;55052;52.056;5.296;2023-03-20T02:40:14;17.45;;;8.43;;
68234;SDS011;55052;52.056;5.296;2023-03-20T02:45:26;16.58;;;7.20;;
68234;SDS011;55052;52.056;5.296;2023-03-20T02:48:09;15.30;;;8.55;;
68234;SDS011;55052;52.056;5.296;2023-03-20T02:53:51;18.13;;;9.77;;
68234;SDS011;55052;52.056;5.296;2023-03-20T02:56:31;20.33;;;10.25;;
68234;SDS011;55052;52.056;5.296;2023-03-20T02:59:15;20.98;;;10.13;;
68234;SDS011;55052;52.056;5.296;2023-03-20T03:02:07;23.00;;;11.85;;
68234;SDS011;55052;52.056;5.296;2023-03-20T03:04:38;30.75;;;12.05;;
68234;SDS011;55052;52.056;5.296;2023-03-20T03:07:09;20.80;;;11.10;;
68234;SDS011;55052;52.056;5.296;2023-03-20T03:09:41;24.45;;;12.23;;
68234;SDS011;55052;52.056;5.296;2023-03-20T03:12:21;21.98;;;10.85;;
68234;SDS011;55052;52.056;5.296;2023-03-20T03:14:54;26.63;;;11.68;;
68234;SDS011;55052;52.056;5.296;2023-03-20T03:17:26;26.65;;;11.27;;
68234;SDS011;55052;52.056;5.296;2023-03-20T03:19:57;22.73;;;11.07;;
68234;SDS011;55052;52.056;5.296;2023-03-20T03:22:29;20.77;;;11.57;;
68234;SDS011;55052;52.056;5.296;2023-03-20T03:24:59;27.23;;;11.55;;
68234;SDS011;55052;52.056;5.296;2023-03-20T03:27:36;23.48;;;10.52;;
68234;SDS011;55052;52.056;5.296;2023-03-20T03:30:11;23.63;;;11.70;;
68234;SDS011;55052;52.056;5.296;2023-03-20T03:32:48;23.08;;;12.43;;
68234;SDS011;55052;52.056;5.296;2023-03-20T03:35:22;24.70;;;11.00;;
68234;SDS011;55052;52.056;5.296;2023-03-20T03:40:40;24.00;;;12.02;;
68234;SDS011;55052;52.056;5.296;2023-03-20T03:43:17;25.83;;;11.27;;
68234;SDS011;55052;52.056;5.296;2023-03-20T03:46:05;24.70;;;11.88;;
68234;SDS011;55052;52.056;5.296;2023-03-20T03:48:47;22.20;;;11.48;;
68234;SDS011;55052;52.056;5.296;2023-03-20T03:51:19;24.25;;;12.80;;
68234;SDS011;55052;52.056;5.296;2023-03-20T03:53:54;24.33;;;11.70;;
68234;SDS011;55052;52.056;5.296;2023-03-20T03:56:33;24.13;;;11.70;;
68234;SDS011;55052;52.056;5.296;2023-03-20T03:59:06;26.75;;;12.20;;
68234;SDS011;55052;52.056;5.296;2023-03-20T04:01:38;25.30;;;11.63;;
68234;SDS011;55052;52.056;5.296;2023-03-20T04:04:09;22.77;;;10.80;;
68234;SDS011;55052;52.056;5.296;2023-03-20T04:09:07;25.15;;;11.23;;
68234;SDS011;55052;52.056;5.296;2023-03-20T04:11:34;24.65;;;11.52;;
68234;SDS011;55052;52.056;5.296;2023-03-20T04:14:01;21.58;;;10.82;;
68234;SDS011;55052;52.056;5.296;2023-03-20T04:16:27;24.52;;;11.70;;
68234;SDS011;55052;52.056;5.296;2023-03-20T04:18:54;23.27;;;10.93;;
68234;SDS011;55052;52.056;5.296;2023-03-20T04:21:21;19.88;;;10.70;;
68234;SDS011;55052;52.056;5.296;2023-03-20T04:23:48;22.55;;;11.30;;
68234;SDS011;55052;52.056;5.296;2023-03-20T04:26:15;24.98;;;10.88;;
68234;SDS011;55052;52.056;5.296;2023-03-20T04:28:42;24.60;;;11.50;;
68234;SDS011;55052;52.056;5.296;2023-03-20T04:31:08;21.00;;;11.60;;
68234;SDS011;55052;52.056;5.296;2023-03-20T04:33:35;24.65;;;12.35;;
68234;SDS011;55052;52.056;5.296;2023-03-20T04:36:03;24.75;;;12.10;;
68234;SDS011;55052;52.056;5.296;2023-03-20T04:38:30;28.63;;;13.60;;
68234;SDS011;55052;52.056;5.296;2023-03-20T04:40:56;22.17;;;12.30;;
68234;SDS011;55052;52.056;5.296;2023-03-20T04:43:23;22.27;;;12.98;;
68234;SDS011;55052;52.056;5.296;2023-03-20T04:45:50;20.77;;;11.70;;
68234;SDS011;55052;52.056;5.296;2023-03-20T04:48:16;24.20;;;11.73;;
68234;SDS011;55052;52.056;5.296;2023-03-20T04:50:43;21.42;;;12.82;;
68234;SDS011;55052;52.056;5.296;2023-03-20T04:53:13;23.00;;;13.23;;
68234;SDS011;55052;52.056;5.296;2023-03-20T04:55:41;25.75;;;13.25;;
68234;SDS011;55052;52.056;5.296;2023-03-20T04:58:08;25.33;;;12.68;;
68234;SDS011;55052;52.056;5.296;2023-03-20T05:00:34;25.27;;;13.25;;
68234;SDS011;55052;52.056;5.296;2023-03-20T05:03:01;22.80;;;12.80;;
68234;SDS011;55052;52.056;5.296;2023-03-20T05:05:28;26.38;;;13.40;;
68234;SDS011;55052;52.056;5.296;2023-03-20T05:07:56;26.40;;;13.00;;
68234;SDS011;55052;52.056;5.296;2023-03-20T05:10:23;22.75;;;12.73;;
68234;SDS011;55052;52.056;5.296;2023-03-20T05:12:49;25.13;;;12.95;;
68234;SDS011;55052;52.056;5.296;2023-03-20T05:15:16;23.15;;;12.05;;
68234;SDS011;55052;52.056;5.296;2023-03-20T05:17:43;25.25;;;11.95;;
68234;SDS011;55052;52.056;5.296;2023-03-20T05:20:10;22.67;;;12.15;;
68234;SDS011;55052;52.056;5.296;2023-03-20T05:22:37;22.20;;;12.07;;
68234;SDS011;55052;52.056;5.296;2023-03-20T05:25:04;23.33;;;12.73;;
68234;SDS011;55052;52.056;5.296;2023-03-20T05:27:31;25.00;;;12.88;;
68234;SDS011;55052;52.056;5.296;2023-03-20T05:29:58;24.42;;;12.55;;
68234;SDS011;55052;52.056;5.296;2023-03-20T05:32:24;24.25;;;12.82;;
68234;SDS011;55052;52.056;5.296;2023-03-20T05:34:51;25.52;;;12.55;;
68234;SDS011;55052;52.056;5.296;2023-03-20T05:37:18;21.92;;;12.48;;
68234;SDS011;55052;52.056;5.296;2023-03-20T05:39:44;24.27;;;12.57;;
68234;SDS011;55052;52.056;5.296;2023-03-20T05:42:11;23.85;;;12.70;;
68234;SDS011;55052;52.056;5.296;2023-03-20T05:44:38;23.48;;;12.60;;
68234;SDS011;55052;52.056;5.296;2023-03-20T05:47:05;21.95;;;11.50;;
68234;SDS011;55052;52.056;5.296;2023-03-20T05:49:31;20.63;;;11.30;;
68234;SDS011;55052;52.056;5.296;2023-03-20T05:51:58;19.70;;;11.52;;
68234;SDS011;55052;52.056;5.296;2023-03-20T05:54:25;20.58;;;12.00;;
68234;SDS011;55052;52.056;5.296;2023-03-20T05:56:51;22.85;;;11.88;;
68234;SDS011;55052;52.056;5.296;2023-03-20T05:59:18;21.33;;;11.68;;
68234;SDS011;55052;52.056;5.296;2023-03-20T06:01:45;23.75;;;11.82;;
68234;SDS011;55052;52.056;5.296;2023-03-20T06:04:12;24.98;;;11.52;;
68234;SDS011;55052;52.056;5.296;2023-03-20T06:06:38;22.48;;;12.23;;
68234;SDS011;55052;52.056;5.296;2023-03-20T06:09:06;23.77;;;11.82;;
68234;SDS011;55052;52.056;5.296;2023-03-20T06:11:33;24.33;;;12.65;;
68234;SDS011;55052;52.056;5.296;2023-03-20T06:14:02;22.35;;;12.90;;
68234;SDS011;55052;52.056;5.296;2023-03-20T06:16:29;18.52;;;11.38;;
68234;SDS011;55052;52.056;5.296;2023-03-20T06:18:56;22.05;;;11.68;;
68234;SDS011;55052;52.056;5.296;2023-03-20T06:21:23;22.90;;;12.40;;
68234;SDS011;55052;52.056;5.296;2023-03-20T06:23:50;22.27;;;11.73;;
68234;SDS011;55052;52.056;5.296;2023-03-20T06:26:17;25.27;;;12.05;;
68234;SDS011;55052;52.056;5.296;2023-03-20T06:28:43;23.17;;;12.27;;
68234;SDS011;55052;52.056;5.296;2023-03-20T06:31:11;23.83;;;12.55;;
68234;SDS011;55052;52.056;5.296;2023-03-20T06:33:37;22.73;;;12.27;;
68234;SDS011;55052;52.056;5.296;2023-03-20T06:36:05;22.48;;;12.40;;
68234;SDS011;55052;52.056;5.296;2023-03-20T06:38:32;21.75;;;11.63;;
68234;SDS011;55052;52.056;5.296;2023-03-20T06:40:59;23.95;;;12.48;;
68234;SDS011;55052;52.056;5.296;2023-03-20T06:43:26;23.67;;;12.45;;
68234;SDS011;55052;52.056;5.296;2023-03-20T06:45:52;21.65;;;11.15;;
68234;SDS011;55052;52.056;5.296;2023-03-20T06:48:19;21.73;;;12.07;;
68234;SDS011;55052;52.056;5.296;2023-03-20T06:50:49;21.80;;;11.73;;
68234;SDS011;55052;52.056;5.296;2023-03-20T06:53:17;26.52;;;12.32;;
68234;SDS011;55052;52.056;5.296;2023-03-20T06:55:48;22.33;;;12.02;;
68234;SDS011;55052;52.056;5.296;2023-03-20T06:58:15;22.08;;;11.95;;
68234;SDS011;55052;52.056;5.296;2023-03-20T07:00:43;21.67;;;12.25;;
68234;SDS011;55052;52.056;5.296;2023-03-20T07:03:10;20.65;;;11.93;;
68234;SDS011;55052;52.056;5.296;2023-03-20T07:05:37;21.65;;;11.20;;
68234;SDS011;55052;52.056;5.296;2023-03-20T07:08:04;23.33;;;12.02;;
68234;SDS011;55052;52.056;5.296;2023-03-20T07:10:33;20.35;;;11.55;;
68234;SDS011;55052;52.056;5.296;2023-03-20T07:13:00;18.75;;;10.63;;
68234;SDS011;55052;52.056;5.296;2023-03-20T07:15:27;20.15;;;11.70;;
68234;SDS011;55052;52.056;5.296;2023-03-20T07:17:55;22.33;;;11.30;;
68234;SDS011;55052;52.056;5.296;2023-03-20T07:20:22;23.13;;;10.60;;
68234;SDS011;55052;52.056;5.296;2023-03-20T07:22:49;24.13;;;11.05;;
68234;SDS011;55052;52.056;5.296;2023-03-20T07:25:16;23.60;;;11.05;;
68234;SDS011;55052;52.056;5.296;2023-03-20T07:27:51;20.70;;;10.95;;
68234;SDS011;55052;52.056;5.296;2023-03-20T07:30:18;21.85;;;11.48;;
68234;SDS011;55052;52.056;5.296;2023-03-20T07:32:44;20.52;;;9.88;;
68234;SDS011;55052;52.056;5.296;2023-03-20T07:35:11;23.95;;;10.95;;
68234;SDS011;55052;52.056;5.296;2023-03-20T07:37:38;22.42;;;10.10;;
68234;SDS011;55052;52.056;5.296;2023-03-20T07:40:06;19.40;;;10.52;;
68234;SDS011;55052;52.056;5.296;2023-03-20T07:42:34;18.75;;;9.52;;
68234;SDS011;55052;52.056;5.296;2023-03-20T07:45:01;16.65;;;10.00;;
68234;SDS011;55052;52.056;5.296;2023-03-20T07:47:28;22.35;;;10.45;;
68234;SDS011;55052;52.056;5.296;2023-03-20T07:49:55;21.85;;;9.77;;
68234;SDS011;55052;52.056;5.296;2023-03-20T07:52:21;19.15;;;9.45;;
68234;SDS011;55052;52.056;5.296;2023-03-20T07:54:48;19.15;;;9.73;;
68234;SDS011;55052;52.056;5.296;2023-03-20T07:57:15;19.48;;;10.10;;
68234;SDS011;55052;52.056;5.296;2023-03-20T07:59:42;20.95;;;9.35;;
68234;SDS011;55052;52.056;5.296;2023-03-20T08:02:15;17.00;;;9.13;;
68234;SDS011;55052;52.056;5.296;2023-03-20T08:04:43;22.98;;;9.55;;
68234;SDS011;55052;52.056;5.296;2023-03-20T08:07:10;19.38;;;9.38;;
68234;SDS011;55052;52.056;5.296;2023-03-20T08:09:38;19.58;;;9.05;;
68234;SDS011;55052;52.056;5.296;2023-03-20T08:12:04;15.75;;;8.65;;
68234;SDS011;55052;52.056;5.296;2023-03-20T08:14:32;23.00;;;9.82;;
68234;SDS011;55052;52.056;5.296;2023-03-20T08:16:59;23.92;;;9.88;;
68234;SDS011;55052;52.056;5.296;2023-03-20T08:19:39;18.70;;;8.70;;
68234;SDS011;55052;52.056;5.296;2023-03-20T08:22:06;20.58;;;9.25;;
68234;SDS011;55052;52.056;5.296;2023-03-20T08:24:32;25.00;;;9.60;;
68234;SDS011;55052;52.056;5.296;2023-03-20T08:26:59;20.38;;;8.95;;
68234;SDS011;55052;52.056;5.296;2023-03-20T08:29:26;17.83;;;8.57;;
68234;SDS011;55052;52.056;5.296;2023-03-20T08:31:52;18.35;;;8.65;;
68234;SDS011;55052;52.056;5.296;2023-03-20T08:34:19;17.67;;;8.90;;
68234;SDS011;55052;52.056;5.296;2023-03-20T08:36:49;37.33;;;10.73;;
68234;SDS011;55052;52.056;5.296;2023-03-20T08:39:17;34.72;;;10.50;;
68234;SDS011;55052;52.056;5.296;2023-03-20T08:41:44;18.20;;;8.05;;
68234;SDS011;55052;52.056;5.296;2023-03-20T08:44:11;29.17;;;10.38;;
68234;SDS011;55052;52.056;5.296;2023-03-20T08:46:38;24.00;;;9.27;;
68234;SDS011;55052;52.056;5.296;2023-03-20T08:49:05;16.73;;;8.25;;
68234;SDS011;55052;52.056;5.296;2023-03-20T08:51:32;20.75;;;7.97;;
68234;SDS011;55052;52.056;5.296;2023-03-20T08:53:59;18.17;;;8.57;;
68234;SDS011;55052;52.056;5.296;2023-03-20T08:56:26;21.35;;;8.77;;
68234;SDS011;55052;52.056;5.296;2023-03-20T08:58:53;19.65;;;7.63;;
68234;SDS011;55052;52.056;5.296;2023-03-20T09:01:21;16.20;;;7.80;;
68234;SDS011;55052;52.056;5.296;2023-03-20T09:03:48;13.52;;;7.45;;
68234;SDS011;55052;52.056;5.296;2023-03-20T09:06:15;19.48;;;8.02;;
68234;SDS011;55052;52.056;5.296;2023-03-20T09:08:41;17.05;;;7.28;;
68234;SDS011;55052;52.056;5.296;2023-03-20T09:11:08;16.63;;;7.45;;
68234;SDS011;55052;52.056;5.296;2023-03-20T09:13:35;16.63;;;7.68;;
68234;SDS011;55052;52.056;5.296;2023-03-20T09:16:02;20.67;;;7.50;;
68234;SDS011;55052;52.056;5.296;2023-03-20T09:18:29;13.57;;;6.55;;
68234;SDS011;55052;52.056;5.296;2023-03-20T09:20:56;14.38;;;6.32;;
68234;SDS011;55052;52.056;5.296;2023-03-20T09:23:23;12.23;;;5.82;;
68234;SDS011;55052;52.056;5.296;2023-03-20T09:25:50;14.13;;;5.95;;
68234;SDS011;55052;52.056;5.296;2023-03-20T09:28:16;13.63;;;6.22;;
68234;SDS011;55052;52.056;5.296;2023-03-20T09:30:43;12.13;;;6.07;;
68234;SDS011;55052;52.056;5.296;2023-03-20T09:33:11;17.48;;;6.40;;
68234;SDS011;55052;52.056;5.296;2023-03-20T09:35:39;17.30;;;6.63;;
68234;SDS011;55052;52.056;5.296;2023-03-20T09:38:09;15.50;;;6.00;;
68234;SDS011;55052;52.056;5.296;2023-03-20T09:40:47;16.00;;;6.25;;
68234;SDS011;55052;52.056;5.296;2023-03-20T09:46:51;14.77;;;6.40;;
68234;SDS011;55052;52.056;5.296;2023-03-20T09:49:19;14.77;;;6.00;;
68234;SDS011;55052;52.056;5.296;2023-03-20T09:54:59;14.68;;;5.95;;
68234;SDS011;55052;52.056;5.296;2023-03-20T09:57:34;13.02;;;6.00;;
68234;SDS011;55052;52.056;5.296;2023-03-20T10:00:12;13.63;;;5.82;;
68234;SDS011;55052;52.056;5.296;2023-03-20T10:02:46;15.32;;;6.28;;
68234;SDS011;55052;52.056;5.296;2023-03-20T10:05:18;14.68;;;5.50;;
68234;SDS011;55052;52.056;5.296;2023-03-20T10:07:55;11.90;;;5.60;;
68234;SDS011;55052;52.056;5.296;2023-03-20T10:13:30;11.13;;;5.28;;
68234;SDS011;55052;52.056;5.296;2023-03-20T10:19:32;17.13;;;5.20;;
68234;SDS011;55052;52.056;5.296;2023-03-20T10:22:23;13.00;;;5.63;;
68234;SDS011;55052;52.056;5.296;2023-03-20T10:24:57;11.13;;;5.28;;
68234;SDS011;55052;52.056;5.296;2023-03-20T10:41:32;13.43;;;5.85;;
68234;SDS011;55052;52.056;5.296;2023-03-20T10:44:02;11.93;;;5.63;;
68234;SDS011;55052;52.056;5.296;2023-03-20T10:46:32;14.30;;;6.50;;
68234;SDS011;55052;52.056;5.296;2023-03-20T10:52:09;13.93;;;6.20;;
68234;SDS011;55052;52.056;5.296;2023-03-20T10:54:41;13.68;;;6.78;;
68234;SDS011;55052;52.056;5.296;2023-03-20T10:57:14;16.52;;;7.13;;
68234;SDS011;55052;52.056;5.296;2023-03-20T10:59:47;16.30;;;6.97;;
68234;SDS011;55052;52.056;5.296;2023-03-20T11:02:17;17.00;;;7.68;;
68234;SDS011;55052;52.056;5.296;2023-03-20T11:04:46;20.83;;;7.88;;
68234;SDS011;55052;52.056;5.296;2023-03-20T11:07:32;18.15;;;8.02;;
68234;SDS011;55052;52.056;5.296;2023-03-20T11:12:31;20.90;;;7.55;;
68234;SDS011;55052;52.056;5.296;2023-03-20T11:14:59;14.43;;;7.65;;
68234;SDS011;55052;52.056;5.296;2023-03-20T11:17:39;20.83;;;9.25;;
68234;SDS011;55052;52.056;5.296;2023-03-20T11:20:07;19.30;;;8.38;;
68234;SDS011;55052;52.056;5.296;2023-03-20T11:22:36;16.67;;;8.70;;
68234;SDS011;55052;52.056;5.296;2023-03-20T11:25:04;20.27;;;8.75;;
68234;SDS011;55052;52.056;5.296;2023-03-20T11:27:32;22.77;;;8.77;;
68234;SDS011;55052;52.056;5.296;2023-03-20T11:30:01;19.27;;;9.35;;
68234;SDS011;55052;52.056;5.296;2023-03-20T11:35:08;22.73;;;9.32;;
68234;SDS011;55052;52.056;5.296;2023-03-20T11:37:42;19.92;;;10.13;;
68234;SDS011;55052;52.056;5.296;2023-03-20T11:42:37;21.15;;;9.55;;
68234;SDS011;55052;52.056;5.296;2023-03-20T11:45:05;23.50;;;10.00;;
68234;SDS011;55052;52.056;5.296;2023-03-20T11:47:42;22.02;;;9.90;;
68234;SDS011;55052;52.056;5.296;2023-03-20T11:50:24;19.23;;;10.10;;
68234;SDS011;55052;52.056;5.296;2023-03-20T11:53:00;18.95;;;9.80;;
68234;SDS011;55052;52.056;5.296;2023-03-20T11:55:29;26.40;;;9.90;;
68234;SDS011;55052;52.056;5.296;2023-03-20T11:57:59;19.05;;;10.25;;
68234;SDS011;55052;52.056;5.296;2023-03-20T12:00:29;23.75;;;10.52;;
68234;SDS011;55052;52.056;5.296;2023-03-20T12:03:03;22.23;;;10.55;;
68234;SDS011;55052;52.056;5.296;2023-03-20T12:06:17;20.73;;;10.15;;
68234;SDS011;55052;52.056;5.296;2023-03-20T12:08:49;19.25;;;10.10;;
68234;SDS011;55052;52.056;5.296;2023-03-20T12:11:36;22.92;;;10.60;;
68234;SDS011;55052;52.056;5.296;2023-03-20T12:14:11;22.52;;;10.52;;
68234;SDS011;55052;52.056;5.296;2023-03-20T12:17:06;22.08;;;9.98;;
68234;SDS011;55052;52.056;5.296;2023-03-20T12:19:51;24.70;;;10.88;;
68234;SDS011;55052;52.056;5.296;2023-03-20T12:22:24;19.30;;;10.15;;
68234;SDS011;55052;52.056;5.296;2023-03-20T12:25:06;22.73;;;11.20;;
68234;SDS011;55052;52.056;5.296;2023-03-20T12:27:44;20.38;;;11.30;;
68234;SDS011;55052;52.056;5.296;2023-03-20T12:30:30;21.60;;;11.10;;
68234;SDS011;55052;52.056;5.296;2023-03-20T12:33:11;22.80;;;11.32;;
68234;SDS011;55052;52.056;5.296;2023-03-20T12:35:49;22.23;;;11.25;;
68234;SDS011;55052;52.056;5.296;2023-03-20T12:38:22;21.63;;;11.43;;
68234;SDS011;55052;52.056;5.296;2023-03-20T12:41:40;20.33;;;10.75;;
68234;SDS011;55052;52.056;5.296;2023-03-20T12:47:06;20.83;;;11.20;;
68234;SDS011;55052;52.056;5.296;2023-03-20T13:01:13;21.35;;;11.00;;
68234;SDS011;55052;52.056;5.296;2023-03-20T13:17:22;24.65;;;11.30;;
68234;SDS011;55052;52.056;5.296;2023-03-20T13:22:46;25.02;;;11.63;;
68234;SDS011;55052;52.056;5.296;2023-03-20T13:30:58;23.30;;;12.18;;
68234;SDS011;55052;52.056;5.296;2023-03-20T13:36:22;24.85;;;12.30;;
68234;SDS011;55052;52.056;5.296;2023-03-20T13:38:52;20.02;;;11.63;;
68234;SDS011;55052;52.056;5.296;2023-03-20T13:41:39;21.27;;;12.18;;
68234;SDS011;55052;52.056;5.296;2023-03-20T13:44:07;22.27;;;11.48;;
68234;SDS011;55052;52.056;5.296;2023-03-20T13:49:19;18.75;;;10.70;;
68234;SDS011;55052;52.056;5.296;2023-03-20T13:51:53;24.52;;;11.88;;
68234;SDS011;55052;52.056;5.296;2023-03-20T14:05:29;19.52;;;11.65;;
68234;SDS011;55052;52.056;5.296;2023-03-20T14:08:19;19.40;;;10.95;;
68234;SDS011;55052;52.056;5.296;2023-03-20T14:13:41;20.73;;;11.50;;
68234;SDS011;55052;52.056;5.296;2023-03-20T14:16:25;20.13;;;11.02;;
68234;SDS011;55052;52.056;5.296;2023-03-20T14:21:52;23.83;;;12.43;;
68234;SDS011;55052;52.056;5.296;2023-03-20T14:24:21;24.63;;;12.60;;
68234;SDS011;55052;52.056;5.296;2023-03-20T14:26:51;24.42;;;13.48;;
68234;SDS011;55052;52.056;5.296;2023-03-20T14:32:02;22.35;;;12.60;;
68234;SDS011;55052;52.056;5.296;2023-03-20T14:34:47;20.95;;;12.95;;
68234;SDS011;55052;52.056;5.296;2023-03-20T14:37:34;24.25;;;12.10;;
68234;SDS011;55052;52.056;5.296;2023-03-20T14:42:35;24.10;;;12.23;;
68234;SDS011;55052;52.056;5.296;2023-03-20T14:48:39;20.23;;;11.95;;
68234;SDS011;55052;52.056;5.296;2023-03-20T14:51:13;25.30;;;12.27;;
68234;SDS011;55052;52.056;5.296;2023-03-20T14:53:55;18.75;;;12.45;;
68234;SDS011;55052;52.056;5.296;2023-03-20T14:56:41;20.10;;;12.07;;
68234;SDS011;55052;52.056;5.296;2023-03-20T14:59:09;20.70;;;13.23;;
68234;SDS011;55052;52.056;5.296;2023-03-20T15:04:04;20.65;;;12.00;;
68234;SDS011;55052;52.056;5.296;2023-03-20T15:06:32;19.85;;;11.80;;
68234;SDS011;55052;52.056;5.296;2023-03-20T15:11:33;18.85;;;11.93;;
68234;SDS011;55052;52.056;5.296;2023-03-20T15:14:01;19.67;;;11.90;;
68234;SDS011;55052;52.056;5.296;2023-03-20T15:16:32;18.13;;;11.15;;
68234;SDS011;55052;52.056;5.296;2023-03-20T15:19:03;25.42;;;12.63;;
68234;SDS011;55052;52.056;5.296;2023-03-20T15:21:40;19.67;;;11.73;;
68234;SDS011;55052;52.056;5.296;2023-03-20T15:24:20;19.98;;;11.85;;
68234;SDS011;55052;52.056;5.296;2023-03-20T15:26:52;21.98;;;11.60;;
68234;SDS011;55052;52.056;5.296;2023-03-20T15:29:21;19.92;;;11.75;;
68234;SDS011;55052;52.056;5.296;2023-03-20T15:31:56;24.05;;;13.40;;
68234;SDS011;55052;52.056;5.296;2023-03-20T15:34:39;21.33;;;11.68;;
68234;SDS011;55052;52.056;5.296;2023-03-20T15:37:16;22.47;;;12.30;;
68234;SDS011;55052;52.056;5.296;2023-03-20T15:39:47;23.40;;;13.43;;
68234;SDS011;55052;52.056;5.296;2023-03-20T15:44:46;20.73;;;12.13;;
68234;SDS011;55052;52.056;5.296;2023-03-20T15:47:18;20.00;;;13.00;;
68234;SDS011;55052;52.056;5.296;2023-03-20T15:49:54;25.63;;;13.75;;
68234;SDS011;55052;52.056;5.296;2023-03-20T15:55:09;22.77;;;12.77;;
68234;SDS011;55052;52.056;5.296;2023-03-20T15:57:40;26.60;;;13.75;;
68234;SDS011;55052;52.056;5.296;2023-03-20T16:00:17;26.67;;;14.00;;
68234;SDS011;55052;52.056;5.296;2023-03-20T16:02:48;23.75;;;13.13;;
68234;SDS011;55052;52.056;5.296;2023-03-20T16:05:17;21.55;;;13.00;;
68234;SDS011;55052;52.056;5.296;2023-03-20T16:07:44;23.95;;;12.60;;
68234;SDS011;55052;52.056;5.296;2023-03-20T16:10:18;23.73;;;13.40;;
68234;SDS011;55052;52.056;5.296;2023-03-20T16:12:50;23.73;;;12.95;;
68234;SDS011;55052;52.056;5.296;2023-03-20T16:15:21;24.77;;;13.52;;
68234;SDS011;55052;52.056;5.296;2023-03-20T16:20:20;30.58;;;13.60;;
68234;SDS011;55052;52.056;5.296;2023-03-20T16:22:48;18.38;;;12.98;;
68234;SDS011;55052;52.056;5.296;2023-03-20T16:25:18;25.23;;;13.48;;
68234;SDS011;55052;52.056;5.296;2023-03-20T16:27:45;30.13;;;13.68;;
68234;SDS011;55052;52.056;5.296;2023-03-20T16:30:23;30.42;;;12.93;;
68234;SDS011;55052;52.056;5.296;2023-03-20T16:32:54;30.02;;;13.55;;
68234;SDS011;55052;52.056;5.296;2023-03-20T16:35:29;27.17;;;13.73;;
68234;SDS011;55052;52.056;5.296;2023-03-20T16:38:13;28.65;;;13.07;;
68234;SDS011;55052;52.056;5.296;2023-03-20T16:40:51;20.80;;;13.75;;
68234;SDS011;55052;52.056;5.296;2023-03-20T16:43:29;28.88;;;13.70;;
68234;SDS011;55052;52.056;5.296;2023-03-20T16:45:57;25.70;;;12.93;;
68234;SDS011;55052;52.056;5.296;2023-03-20T16:48:33;26.85;;;14.30;;
68234;SDS011;55052;52.056;5.296;2023-03-20T16:53:46;29.60;;;14.15;;
68234;SDS011;55052;52.056;5.296;2023-03-20T16:56:16;24.67;;;13.02;;
68234;SDS011;55052;52.056;5.296;2023-03-20T16:58:51;25.23;;;12.68;;
68234;SDS011;55052;52.056;5.296;2023-03-20T17:01:22;28.17;;;13.55;;
68234;SDS011;55052;52.056;5.296;2023-03-20T17:03:54;21.08;;;13.18;;
68234;SDS011;55052;52.056;5.296;2023-03-20T17:06:27;26.48;;;13.90;;
68234;SDS011;55052;52.056;5.296;2023-03-20T17:09:09;30.35;;;13.73;;
68234;SDS011;55052;52.056;5.296;2023-03-20T17:11:44;28.15;;;14.00;;
68234;SDS011;55052;52.056;5.296;2023-03-20T17:14:16;21.45;;;14.23;;
68234;SDS011;55052;52.056;5.296;2023-03-20T17:16:43;24.90;;;13.93;;
68234;SDS011;55052;52.056;5.296;2023-03-20T17:19:15;26.98;;;14.10;;
68234;SDS011;55052;52.056;5.296;2023-03-20T17:21:43;25.75;;;13.85;;
68234;SDS011;55052;52.056;5.296;2023-03-20T17:24:12;26.65;;;13.57;;
68234;SDS011;55052;52.056;5.296;2023-03-20T17:26:41;30.77;;;14.07;;
68234;SDS011;55052;52.056;5.296;2023-03-20T17:29:10;27.45;;;14.07;;
68234;SDS011;55052;52.056;5.296;2023-03-20T17:31:38;26.65;;;13.27;;
68234;SDS011;55052;52.056;5.296;2023-03-20T17:34:05;27.75;;;13.25;;